Time;durP1;ratioP1;P1;durP2;ratioP2;P2;SDS_P1;SDS_P2;PMS_P1;PMS_P2;Temp;Humidity;BMP_temperature;BMP_pressure;BME280_temperature;BME280_humidity;BME280_pressure;Samples;Min_cycle;Max_cycle;Signal;HPM_P1;HPM_P2
2021/05/12 00:01:09;;;;;;;;;;;15.70;78.60;;;;;;4303923;33;20079;-80
2021/05/12 00:03:36;;;;;;;;;;;15.70;78.60;;;;;;4290338;33;20020;-80
2021/05/12 00:06:06;;;;;;;;;;;15.70;78.70;;;;;;4302558;33;20016;-80
2021/05/12 00:08:39;;;;;;;;;;;15.70;78.70;;;;;;4278738;33;20003;-80
2021/05/12 00:11:06;;;;;;;;;;;15.70;78.60;;;;;;4303205;33;20002;-79
2021/05/12 00:13:43;;;;;;;;;;;15.70;78.60;;;;;;4303447;33;20415;-80
2021/05/12 00:16:12;;;;;;;;;;;15.70;78.60;;;;;;4303353;33;20359;-79
2021/05/12 00:18:45;;;;;;;;;;;15.70;78.70;;;;;;4303420;33;20010;-80
2021/05/12 00:21:57;;;;;;;;;;;15.60;78.90;;;;;;4290294;33;20301;-81
2021/05/12 00:24:19;;;;;;;;;;;15.60;79.00;;;;;;4302540;33;20010;-81
2021/05/12 00:26:55;;;;;;;;;;;15.40;79.30;;;;;;4290243;33;20016;-80
2021/05/12 00:29:22;;;;;;;;;;;15.30;80.50;;;;;;4303339;33;20010;-81
2021/05/12 00:31:53;;;;;;;;;;;15.30;80.00;;;;;;4278182;33;20012;-80
2021/05/12 00:34:29;;;;;;;;;;;15.20;80.20;;;;;;4302043;33;20016;-81
2021/05/12 00:36:59;;;;;;;;;;;15.20;80.30;;;;;;4303204;33;20021;-81
2021/05/12 00:39:26;;;;;;;;;;;15.20;80.40;;;;;;4301509;33;20003;-81
2021/05/12 00:41:55;;;;;;;;;;;15.10;80.60;;;;;;4290045;33;20050;-81
2021/05/12 00:44:22;;;;;;;;;;;15.10;80.80;;;;;;4289890;33;20038;-81
2021/05/12 00:46:51;;;;;;;;;;;15.10;80.80;;;;;;4302046;33;20113;-81
2021/05/12 00:49:22;;;;;;;;;;;15.10;81.50;;;;;;4290375;33;20009;-81
2021/05/12 00:51:50;;;;;;;;;;;15.10;80.80;;;;;;4303018;33;20413;-81
2021/05/12 00:54:22;;;;;;;;;;;15.10;80.80;;;;;;4303052;33;20016;-81
2021/05/12 00:56:49;;;;;;;;;;;15.10;80.90;;;;;;4277735;33;20001;-81
2021/05/12 00:59:29;;;;;;;;;;;15.10;80.70;;;;;;4301878;33;20076;-80
2021/05/12 01:02:04;;;;;;;;;;;15.10;80.70;;;;;;4301806;33;20047;-81
2021/05/12 01:04:34;;;;;;;;;;;15.10;80.70;;;;;;4303037;33;20475;-80
2021/05/12 01:07:02;;;;;;;;;;;15.10;80.70;;;;;;4301736;33;20363;-81
2021/05/12 01:09:29;;;;;;;;;;;15.10;80.50;;;;;;4277738;33;20441;-81
2021/05/12 01:12:01;;;;;;;;;;;15.10;80.30;;;;;;4289710;33;20375;-81
2021/05/12 01:14:31;;;;;;;;;;;15.20;80.30;;;;;;4289780;33;20069;-81
2021/05/12 01:17:01;;;;;;;;;;;15.10;80.10;;;;;;4302615;33;20091;-81
2021/05/12 01:19:34;;;;;;;;;;;15.20;80.00;;;;;;4302847;33;20052;-81
2021/05/12 01:22:02;;;;;;;;;;;15.20;80.00;;;;;;4302484;33;20404;-81
2021/05/12 01:24:29;;;;;;;;;;;15.10;79.90;;;;;;4302955;33;20006;-81
2021/05/12 01:26:59;;;;;;;;;;;15.10;80.00;;;;;;4302794;33;20018;-81
2021/05/12 01:29:26;;;;;;;;;;;15.10;80.10;;;;;;4289525;33;20026;-81
2021/05/12 01:31:59;;;;;;;;;;;15.00;80.10;;;;;;4292933;33;20053;-81
2021/05/12 01:34:29;;;;;;;;;;;15.10;80.00;;;;;;4304798;33;20484;-81
2021/05/12 01:36:59;;;;;;;;;;;15.10;79.80;;;;;;4292664;33;20024;-81
2021/05/12 01:39:29;;;;;;;;;;;15.10;79.80;;;;;;4305504;33;20109;-81
2021/05/12 01:41:56;;;;;;;;;;;15.10;79.70;;;;;;4280359;33;20024;-81
2021/05/12 01:44:23;;;;;;;;;;;15.20;79.70;;;;;;4292183;33;20006;-81
2021/05/12 01:46:53;;;;;;;;;;;15.10;79.60;;;;;;4304153;33;20014;-81
2021/05/12 01:49:24;;;;;;;;;;;15.10;79.60;;;;;;4305483;33;20020;-81
2021/05/12 01:51:56;;;;;;;;;;;15.10;79.70;;;;;;4303826;33;20012;-81
2021/05/12 01:54:23;;;;;;;;;;;15.10;79.70;;;;;;4305159;33;20352;-81
2021/05/12 01:56:50;;;;;;;;;;;15.10;79.70;;;;;;4292170;33;19998;-81
2021/05/12 01:59:24;;;;;;;;;;;15.10;79.80;;;;;;4305449;33;20113;-81
2021/05/12 02:01:55;;;;;;;;;;;15.00;79.70;;;;;;4303783;33;20037;-81
2021/05/12 02:04:27;;;;;;;;;;;15.00;79.90;;;;;;4305414;33;20006;-81
2021/05/12 02:06:57;;;;;;;;;;;14.90;80.00;;;;;;4279988;33;20008;-81
2021/05/12 02:09:25;;;;;;;;;;;14.90;80.10;;;;;;4292178;33;20012;-81
2021/05/12 02:11:52;;;;;;;;;;;14.90;80.20;;;;;;4303841;33;20054;-80
2021/05/12 02:14:19;;;;;;;;;;;14.80;80.20;;;;;;4291770;33;20100;-81
2021/05/12 02:16:46;;;;;;;;;;;14.80;80.30;;;;;;4291963;33;20002;-81
2021/05/12 02:19:17;;;;;;;;;;;14.80;80.40;;;;;;4291907;33;20010;-81
2021/05/12 02:21:46;;;;;;;;;;;14.80;80.50;;;;;;4304854;33;20085;-81
2021/05/12 02:24:14;;;;;;;;;;;14.70;80.50;;;;;;4291694;33;20012;-81
2021/05/12 02:26:47;;;;;;;;;;;14.70;80.60;;;;;;4291889;33;20012;-81
2021/05/12 02:29:15;;;;;;;;;;;14.70;80.60;;;;;;4305055;33;20010;-80
2021/05/12 02:31:42;;;;;;;;;;;14.70;80.60;;;;;;4291507;33;20065;-81
2021/05/12 02:34:14;;;;;;;;;;;14.70;80.60;;;;;;4304611;33;20471;-80
2021/05/12 02:36:45;;;;;;;;;;;14.70;80.60;;;;;;4291281;33;20404;-80
2021/05/12 02:39:13;;;;;;;;;;;14.70;80.50;;;;;;4291600;33;20007;-80
2021/05/12 02:41:42;;;;;;;;;;;14.70;80.50;;;;;;4303993;33;20073;-80
2021/05/12 02:44:10;;;;;;;;;;;14.60;80.30;;;;;;4304402;33;20061;-80
2021/05/12 02:46:40;;;;;;;;;;;14.60;80.20;;;;;;4291088;33;20067;-80
2021/05/12 02:49:12;;;;;;;;;;;14.60;80.20;;;;;;4303766;33;20024;-80
2021/05/12 02:51:42;;;;;;;;;;;14.60;80.20;;;;;;4304684;33;20024;-80
2021/05/12 02:54:14;;;;;;;;;;;14.50;80.10;;;;;;4303569;33;20024;-80
2021/05/12 02:56:45;;;;;;;;;;;14.50;79.90;;;;;;4291167;33;20015;-80
2021/05/12 02:59:17;;;;;;;;;;;14.60;79.90;;;;;;4291394;33;20050;-80
2021/05/12 03:01:47;;;;;;;;;;;14.60;79.80;;;;;;4304483;33;20014;-80
2021/05/12 03:04:14;;;;;;;;;;;14.50;79.60;;;;;;4291514;33;20066;-80
2021/05/12 03:06:41;;;;;;;;;;;14.60;79.70;;;;;;4303453;33;20026;-80
2021/05/12 03:09:11;;;;;;;;;;;14.50;79.50;;;;;;4304433;33;20424;-80
2021/05/12 03:11:42;;;;;;;;;;;14.50;79.50;;;;;;4291562;33;20078;-80
2021/05/12 03:14:09;;;;;;;;;;;14.50;79.30;;;;;;4303115;33;20017;-80
2021/05/12 03:16:37;;;;;;;;;;;14.50;79.20;;;;;;4291213;33;20028;-80
2021/05/12 03:19:05;;;;;;;;;;;14.50;79.30;;;;;;4291122;33;20061;-80
2021/05/12 03:21:35;;;;;;;;;;;14.40;79.20;;;;;;4279374;33;20040;-80
2021/05/12 03:24:08;;;;;;;;;;;14.40;79.30;;;;;;4290648;33;20013;-80
2021/05/12 03:26:38;;;;;;;;;;;14.30;79.20;;;;;;4304089;33;20044;-80
2021/05/12 03:29:13;;;;;;;;;;;14.30;79.20;;;;;;4304333;33;20016;-80
2021/05/12 03:31:43;;;;;;;;;;;14.30;79.20;;;;;;4302764;33;19998;-80
2021/05/12 03:34:10;;;;;;;;;;;14.20;79.20;;;;;;4302802;33;20014;-80
2021/05/12 03:36:38;;;;;;;;;;;14.20;79.10;;;;;;4290736;33;20006;-79
2021/05/12 03:39:13;;;;;;;;;;;14.20;79.20;;;;;;4278967;33;19994;-79
2021/05/12 03:41:46;;;;;;;;;;;14.10;79.10;;;;;;4290975;33;20018;-80
2021/05/12 03:44:17;;;;;;;;;;;14.10;79.20;;;;;;4279043;33;20041;-80
2021/05/12 03:46:51;;;;;;;;;;;14.10;79.20;;;;;;4291132;33;20014;-79
2021/05/12 03:49:19;;;;;;;;;;;14.10;79.10;;;;;;4278964;33;20061;-80
2021/05/12 03:51:46;;;;;;;;;;;14.10;78.90;;;;;;4302634;33;20014;-79
2021/05/12 03:54:13;;;;;;;;;;;14.10;78.80;;;;;;4290594;33;20013;-79
2021/05/12 03:56:43;;;;;;;;;;;14.10;78.70;;;;;;4290537;33;20078;-80
2021/05/12 03:59:11;;;;;;;;;;;14.00;78.50;;;;;;4303334;33;20087;-79
2021/05/12 04:01:38;;;;;;;;;;;14.00;78.70;;;;;;4302505;33;20010;-79
2021/05/12 04:04:09;;;;;;;;;;;14.00;78.80;;;;;;4290191;33;20003;-79
2021/05/12 04:06:44;;;;;;;;;;;13.90;78.80;;;;;;4303714;33;20066;-79
2021/05/12 04:09:11;;;;;;;;;;;13.80;79.00;;;;;;4302362;33;20006;-80
2021/05/12 04:11:44;;;;;;;;;;;13.80;79.00;;;;;;4303141;33;20052;-80
2021/05/12 04:14:19;;;;;;;;;;;13.70;79.20;;;;;;4302151;33;20070;-79
2021/05/12 04:16:51;;;;;;;;;;;13.70;79.20;;;;;;4290014;33;19999;-79
2021/05/12 04:19:20;;;;;;;;;;;13.70;79.40;;;;;;4303585;33;20075;-80
2021/05/12 04:21:47;;;;;;;;;;;13.70;79.50;;;;;;4290444;33;20347;-80
2021/05/12 04:24:17;;;;;;;;;;;13.60;79.50;;;;;;4302228;33;20065;-79
2021/05/12 04:26:44;;;;;;;;;;;13.70;79.40;;;;;;4303042;33;20048;-80
2021/05/12 04:29:12;;;;;;;;;;;13.60;79.40;;;;;;4290093;33;20395;-80
2021/05/12 04:31:39;;;;;;;;;;;13.60;79.40;;;;;;4302802;33;20016;-79
2021/05/12 04:34:09;;;;;;;;;;;13.50;79.30;;;;;;4290280;33;20065;-79
2021/05/12 04:36:36;;;;;;;;;;;13.60;79.40;;;;;;4303236;33;20010;-80
2021/05/12 04:39:09;;;;;;;;;;;13.50;79.40;;;;;;4289677;33;20388;-79
2021/05/12 04:41:36;;;;;;;;;;;13.50;79.40;;;;;;4289504;33;20433;-79
2021/05/12 04:44:04;;;;;;;;;;;13.50;79.40;;;;;;4302948;33;20017;-79
2021/05/12 04:46:31;;;;;;;;;;;13.60;79.30;;;;;;4301821;33;20005;-79
2021/05/12 04:49:00;;;;;;;;;;;13.60;79.30;;;;;;4303106;33;20054;-80
2021/05/12 04:51:33;;;;;;;;;;;13.50;79.20;;;;;;4303097;33;20054;-80
2021/05/12 04:54:04;;;;;;;;;;;13.50;79.30;;;;;;4302694;33;20011;-80
2021/05/12 04:56:34;;;;;;;;;;;13.40;79.40;;;;;;4289819;33;20466;-80
2021/05/12 04:59:03;;;;;;;;;;;13.40;79.60;;;;;;4290098;33;20066;-80
2021/05/12 05:01:31;;;;;;;;;;;13.40;79.60;;;;;;4302767;33;20113;-80
2021/05/12 05:04:01;;;;;;;;;;;13.40;79.70;;;;;;4303166;33;20041;-80
2021/05/12 05:06:33;;;;;;;;;;;13.40;79.90;;;;;;4289362;33;20007;-80
2021/05/12 05:09:06;;;;;;;;;;;13.40;80.00;;;;;;4302907;33;20073;-80
2021/05/12 05:11:34;;;;;;;;;;;13.40;80.00;;;;;;4301472;33;20056;-80
2021/05/12 05:14:05;;;;;;;;;;;13.40;80.30;;;;;;4302712;33;20317;-80
2021/05/12 05:16:40;;;;;;;;;;;13.30;80.40;;;;;;4302909;33;20066;-80
2021/05/12 05:19:12;;;;;;;;;;;13.30;80.50;;;;;;4289491;33;20407;-80
2021/05/12 05:21:40;;;;;;;;;;;13.30;80.50;;;;;;4301836;33;20025;-81
2021/05/12 05:24:08;;;;;;;;;;;13.30;80.40;;;;;;4289514;33;20010;-80
2021/05/12 05:26:38;;;;;;;;;;;13.40;80.50;;;;;;4302768;33;20028;-80
2021/05/12 05:29:08;;;;;;;;;;;13.30;80.40;;;;;;4302771;33;20013;-80
2021/05/12 05:31:35;;;;;;;;;;;13.30;80.40;;;;;;4289282;33;20018;-80
2021/05/12 05:34:03;;;;;;;;;;;13.40;80.40;;;;;;4302174;33;20040;-80
2021/05/12 05:36:33;;;;;;;;;;;13.40;81.20;;;;;;4289783;33;20008;-79
2021/05/12 05:39:03;;;;;;;;;;;13.40;80.40;;;;;;4302629;33;20006;-80
2021/05/12 05:41:33;;;;;;;;;;;13.50;80.30;;;;;;4302472;33;20020;-80
2021/05/12 05:44:08;;;;;;;;;;;13.50;80.30;;;;;;4302776;33;20434;-80
2021/05/12 05:46:38;;;;;;;;;;;13.40;80.30;;;;;;4302268;33;20015;-80
2021/05/12 05:49:12;;;;;;;;;;;13.50;80.20;;;;;;4289775;33;20040;-80
2021/05/12 05:51:43;;;;;;;;;;;13.50;80.30;;;;;;4301563;33;20010;-80
2021/05/12 05:54:10;;;;;;;;;;;13.50;80.30;;;;;;4301457;33;20073;-80
2021/05/12 05:56:37;;;;;;;;;;;13.40;80.10;;;;;;4302238;33;20069;-80
2021/05/12 05:59:04;;;;;;;;;;;13.40;80.20;;;;;;4289606;33;20062;-79
2021/05/12 06:01:31;;;;;;;;;;;13.50;80.30;;;;;;4289378;33;20077;-79
2021/05/12 06:04:01;;;;;;;;;;;13.40;80.20;;;;;;4301640;33;20014;-79
2021/05/12 06:06:29;;;;;;;;;;;13.50;80.40;;;;;;4289590;33;20018;-79
2021/05/12 06:09:00;;;;;;;;;;;13.50;80.50;;;;;;4302287;33;20020;-79
2021/05/12 06:11:27;;;;;;;;;;;13.50;80.60;;;;;;4302122;33;20006;-79
2021/05/12 06:13:57;;;;;;;;;;;13.50;80.50;;;;;;4289042;33;20012;-79
2021/05/12 06:16:24;;;;;;;;;;;13.50;80.50;;;;;;4303328;33;20018;-79
2021/05/12 06:18:52;;;;;;;;;;;13.60;80.50;;;;;;4291940;33;20013;-79
2021/05/12 06:21:23;;;;;;;;;;;13.60;80.40;;;;;;4304946;33;20052;-79
2021/05/12 06:23:55;;;;;;;;;;;13.50;80.50;;;;;;4304264;33;20062;-79
2021/05/12 06:26:25;;;;;;;;;;;13.50;80.60;;;;;;4304807;33;20036;-79
2021/05/12 06:28:58;;;;;;;;;;;13.50;81.00;;;;;;4292051;33;20042;-79
2021/05/12 06:31:27;;;;;;;;;;;13.50;81.00;;;;;;4291737;33;20018;-79
2021/05/12 06:33:59;;;;;;;;;;;13.50;80.90;;;;;;4303787;33;20066;-79
2021/05/12 06:36:29;;;;;;;;;;;13.50;80.90;;;;;;4292003;33;20049;-79
2021/05/12 06:39:05;;;;;;;;;;;13.50;80.90;;;;;;4305125;33;20003;-79
2021/05/12 06:41:33;;;;;;;;;;;13.50;80.70;;;;;;4291866;33;20077;-79
2021/05/12 06:44:01;;;;;;;;;;;13.60;80.80;;;;;;4291683;33;20018;-79
2021/05/12 06:46:33;;;;;;;;;;;13.50;80.80;;;;;;4304577;33;20057;-79
2021/05/12 06:49:03;;;;;;;;;;;13.50;80.90;;;;;;4291831;33;20074;-79
2021/05/12 06:51:33;;;;;;;;;;;13.50;80.90;;;;;;4304710;33;20050;-79
2021/05/12 06:54:01;;;;;;;;;;;13.50;80.80;;;;;;4304588;33;20028;-79
2021/05/12 06:56:31;;;;;;;;;;;13.50;80.90;;;;;;4303353;33;20018;-79
2021/05/12 06:59:00;;;;;;;;;;;13.50;81.00;;;;;;4304753;33;20046;-79
2021/05/12 07:01:29;;;;;;;;;;;13.50;80.90;;;;;;4291261;33;20014;-79
2021/05/12 07:03:56;;;;;;;;;;;13.60;80.80;;;;;;4291492;33;20370;-79
2021/05/12 07:06:24;;;;;;;;;;;13.60;80.90;;;;;;4291480;33;20044;-79
2021/05/12 07:08:58;;;;;;;;;;;13.60;80.80;;;;;;4303300;33;20010;-79
2021/05/12 07:11:29;;;;;;;;;;;13.60;80.90;;;;;;4304436;33;20013;-79
2021/05/12 07:13:56;;;;;;;;;;;13.60;80.80;;;;;;4303712;33;20018;-79
2021/05/12 07:16:31;;;;;;;;;;;13.70;80.70;;;;;;4304318;33;20010;-78
2021/05/12 07:18:58;;;;;;;;;;;13.70;80.70;;;;;;4304422;33;20404;-79
2021/05/12 07:21:26;;;;;;;;;;;13.70;80.70;;;;;;4290968;33;19998;-79
2021/05/12 07:23:53;;;;;;;;;;;13.70;80.70;;;;;;4304166;33;20024;-79
2021/05/12 07:26:23;;;;;;;;;;;13.80;80.70;;;;;;4291379;33;20006;-79
2021/05/12 07:28:53;;;;;;;;;;;13.80;80.60;;;;;;4278856;33;20464;-79
2021/05/12 07:31:24;;;;;;;;;;;13.80;80.40;;;;;;4290687;33;20409;-79
2021/05/12 07:33:58;;;;;;;;;;;13.80;80.40;;;;;;4291050;33;20079;-79
2021/05/12 07:36:27;;;;;;;;;;;13.80;80.40;;;;;;4304043;33;20002;-79
2021/05/12 07:38:58;;;;;;;;;;;13.80;80.40;;;;;;4303368;33;20013;-78
2021/05/12 07:41:27;;;;;;;;;;;13.80;80.40;;;;;;4302581;33;20360;-79
2021/05/12 07:43:54;;;;;;;;;;;13.80;80.30;;;;;;4303749;33;20062;-78
2021/05/12 07:46:31;;;;;;;;;;;13.80;80.30;;;;;;4303925;33;20014;-78
2021/05/12 07:48:58;;;;;;;;;;;13.90;80.10;;;;;;4303897;33;20024;-78
2021/05/12 07:51:29;;;;;;;;;;;13.90;80.20;;;;;;4302738;33;20052;-78
2021/05/12 07:53:59;;;;;;;;;;;13.90;80.10;;;;;;4290185;33;20018;-78
2021/05/12 07:56:27;;;;;;;;;;;13.90;80.10;;;;;;4303550;33;20007;-78
2021/05/12 07:58:57;;;;;;;;;;;14.00;79.90;;;;;;4303567;33;20016;-79
2021/05/12 08:01:42;;;;;;;;;;;14.00;79.80;;;;;;4303475;33;20003;-78
2021/05/12 08:04:10;;;;;;;;;;;13.90;79.80;;;;;;4302910;33;20424;-79
2021/05/12 08:06:40;;;;;;;;;;;14.00;79.80;;;;;;4303409;33;20013;-79
2021/05/12 08:09:09;;;;;;;;;;;14.00;79.80;;;;;;4302484;33;20430;-78
2021/05/12 08:11:44;;;;;;;;;;;14.00;79.70;;;;;;4302620;33;20097;-79
2021/05/12 08:14:14;;;;;;;;;;;14.00;79.90;;;;;;4303441;33;20010;-79
2021/05/12 08:16:45;;;;;;;;;;;14.00;79.70;;;;;;4290093;33;20408;-79
2021/05/12 08:19:13;;;;;;;;;;;14.00;79.70;;;;;;4290297;33;20112;-79
2021/05/12 08:21:43;;;;;;;;;;;14.00;79.70;;;;;;4303650;33;20028;-79
2021/05/12 08:24:13;;;;;;;;;;;14.00;79.60;;;;;;4302233;33;20066;-79
2021/05/12 08:26:43;;;;;;;;;;;14.00;79.60;;;;;;4290255;33;20024;-79
2021/05/12 08:29:16;;;;;;;;;;;14.10;79.50;;;;;;4290067;33;19994;-79
2021/05/12 08:31:46;;;;;;;;;;;14.10;79.40;;;;;;4302379;33;20005;-79
2021/05/12 08:34:13;;;;;;;;;;;14.10;79.20;;;;;;4303234;33;20040;-79
2021/05/12 08:36:41;;;;;;;;;;;14.10;79.10;;;;;;4302161;33;20066;-79
2021/05/12 08:39:11;;;;;;;;;;;14.10;79.00;;;;;;4301645;33;20020;-79
2021/05/12 08:41:41;;;;;;;;;;;14.20;79.10;;;;;;4301752;33;20424;-79
2021/05/12 08:44:13;;;;;;;;;;;14.20;79.10;;;;;;4277686;33;20007;-80
2021/05/12 08:46:46;;;;;;;;;;;14.20;79.10;;;;;;4302186;33;20425;-80
2021/05/12 08:49:22;;;;;;;;;;;14.10;79.20;;;;;;4303100;33;20002;-80
2021/05/12 08:51:53;;;;;;;;;;;14.20;79.30;;;;;;4290149;33;20070;-80
2021/05/12 08:54:26;;;;;;;;;;;14.20;79.30;;;;;;4302629;33;20478;-80
2021/05/12 08:56:56;;;;;;;;;;;14.20;79.30;;;;;;4277933;33;20002;-80
2021/05/12 08:59:26;;;;;;;;;;;14.20;79.10;;;;;;4301942;33;20012;-80
2021/05/12 09:01:59;;;;;;;;;;;14.20;79.00;;;;;;4302616;33;20014;-79
2021/05/12 09:04:32;;;;;;;;;;;14.30;78.80;;;;;;4302953;33;20014;-80
2021/05/12 09:07:00;;;;;;;;;;;14.30;78.80;;;;;;4303176;33;20053;-81
2021/05/12 09:09:32;;;;;;;;;;;14.20;78.60;;;;;;4289975;33;20009;-81
2021/05/12 09:12:02;;;;;;;;;;;14.20;78.50;;;;;;4302956;33;20020;-80
2021/05/12 09:14:35;;;;;;;;;;;14.30;78.40;;;;;;4302746;33;20014;-80
2021/05/12 09:17:03;;;;;;;;;;;14.20;78.50;;;;;;4303329;33;20070;-81
2021/05/12 09:19:31;;;;;;;;;;;14.30;78.40;;;;;;4302010;33;20015;-81
2021/05/12 09:22:01;;;;;;;;;;;14.30;78.40;;;;;;4302582;33;20010;-81
2021/05/12 09:24:29;;;;;;;;;;;14.30;78.40;;;;;;4289738;33;20374;-81
2021/05/12 09:27:11;;;;;;;;;;;14.30;78.40;;;;;;4289583;33;20404;-81
2021/05/12 09:30:07;;;;;;;;;;;14.30;78.40;;;;;;4278355;33;20023;-81
2021/05/12 09:32:41;;;;;;;;;;;14.30;78.50;;;;;;4289207;33;19998;-81
2021/05/12 09:35:11;;;;;;;;;;;14.40;78.60;;;;;;4302685;33;20356;-81
2021/05/12 09:37:45;;;;;;;;;;;14.40;78.30;;;;;;4289877;33;20079;-81
2021/05/12 09:40:15;;;;;;;;;;;14.40;79.10;;;;;;4289540;33;20020;-81
2021/05/12 09:42:54;;;;;;;;;;;14.40;78.20;;;;;;4277376;33;20498;-81
2021/05/12 09:45:28;;;;;;;;;;;14.40;77.90;;;;;;4302698;33;20014;-80
2021/05/12 09:48:03;;;;;;;;;;;14.40;77.80;;;;;;4301699;33;20006;-81
2021/05/12 09:50:41;;;;;;;;;;;14.40;77.70;;;;;;4302613;33;20026;-81
2021/05/12 09:53:15;;;;;;;;;;;14.50;77.60;;;;;;4292247;33;20070;-81
2021/05/12 09:55:50;;;;;;;;;;;14.50;77.60;;;;;;4293269;33;20018;-81
2021/05/12 09:58:24;;;;;;;;;;;14.50;77.50;;;;;;4305524;33;20343;-81
2021/05/12 10:00:56;;;;;;;;;;;14.50;77.30;;;;;;4305405;33;20097;-79
2021/05/12 10:03:24;;;;;;;;;;;14.50;77.20;;;;;;4305056;33;20028;-80
2021/05/12 10:05:58;;;;;;;;;;;14.50;77.00;;;;;;4305133;33;20021;-81
2021/05/12 10:08:40;;;;;;;;;;;14.50;77.20;;;;;;4304948;33;20019;-80
2021/05/12 10:11:08;;;;;;;;;;;14.50;77.10;;;;;;4305257;33;20062;-80
2021/05/12 10:13:40;;;;;;;;;;;14.50;77.80;;;;;;4304782;33;20013;-80
2021/05/12 10:16:12;;;;;;;;;;;14.50;77.00;;;;;;4291727;33;20002;-80
2021/05/12 10:18:39;;;;;;;;;;;14.60;77.10;;;;;;4292164;33;20020;-80
2021/05/12 10:21:15;;;;;;;;;;;14.60;77.20;;;;;;4304166;33;20024;-80
2021/05/12 10:23:45;;;;;;;;;;;14.60;77.30;;;;;;4292206;33;20069;-80
2021/05/12 10:26:18;;;;;;;;;;;14.60;77.40;;;;;;4304665;33;19998;-80
2021/05/12 10:28:46;;;;;;;;;;;14.60;77.30;;;;;;4305075;33;20045;-80
2021/05/12 10:31:18;;;;;;;;;;;14.70;77.20;;;;;;4304738;33;20109;-80
2021/05/12 10:33:51;;;;;;;;;;;14.70;77.30;;;;;;4304946;33;20024;-80
2021/05/12 10:36:21;;;;;;;;;;;14.70;77.30;;;;;;4304976;33;20015;-79
2021/05/12 10:39:00;;;;;;;;;;;14.80;77.20;;;;;;4291468;33;20003;-80
2021/05/12 10:41:40;;;;;;;;;;;14.80;77.00;;;;;;4303314;33;20061;-79
2021/05/12 10:44:15;;;;;;;;;;;14.80;76.90;;;;;;4303751;33;20065;-79
2021/05/12 10:46:58;;;;;;;;;;;14.80;76.70;;;;;;4304807;33;20061;-79
2021/05/12 10:49:25;;;;;;;;;;;14.80;76.50;;;;;;4303635;33;20010;-79
2021/05/12 10:51:59;;;;;;;;;;;14.90;76.60;;;;;;4279474;33;20061;-79
2021/05/12 10:54:39;;;;;;;;;;;14.90;76.60;;;;;;4304427;33;20015;-79
2021/05/12 10:57:07;;;;;;;;;;;14.90;76.60;;;;;;4291320;33;20026;-79
2021/05/12 10:59:38;;;;;;;;;;;14.90;76.50;;;;;;4304183;33;20045;-79
2021/05/12 11:02:08;;;;;;;;;;;14.90;76.10;;;;;;4303855;33;20022;-79
2021/05/12 11:04:35;;;;;;;;;;;15.00;76.40;;;;;;4303892;33;20400;-78
2021/05/12 11:07:06;;;;;;;;;;;15.00;75.50;;;;;;4291321;33;20068;-78
2021/05/12 11:09:40;;;;;;;;;;;15.00;75.90;;;;;;4279239;33;20065;-78
2021/05/12 11:12:11;;;;;;;;;;;15.00;75.80;;;;;;4291228;33;20014;-78
2021/05/12 11:14:39;;;;;;;;;;;15.00;75.90;;;;;;4279440;33;20055;-78
2021/05/12 11:17:13;;;;;;;;;;;15.10;76.00;;;;;;4291254;33;20020;-79
2021/05/12 11:20:01;;;;;;;;;;;15.10;75.00;;;;;;4303949;33;20010;-80
2021/05/12 11:25:31;;;;;;;;;;;15.20;75.40;;;;;;4304120;33;20014;-80
2021/05/12 11:33:28;;;;;;;;;;;15.30;75.00;;;;;;4304250;33;20350;-80
2021/05/12 11:36:20;;;;;;;;;;;15.40;74.90;;;;;;4290681;33;20018;-81
2021/05/12 11:38:51;;;;;;;;;;;15.40;74.60;;;;;;4303673;33;20043;-81
2021/05/12 11:41:21;;;;;;;;;;;15.40;74.40;;;;;;4291144;33;19994;-82
2021/05/12 11:43:54;;;;;;;;;;;15.40;74.30;;;;;;4303842;33;20006;-80
2021/05/12 11:46:26;;;;;;;;;;;15.40;73.90;;;;;;4304012;33;20006;-81
2021/05/12 11:48:55;;;;;;;;;;;15.40;74.20;;;;;;4303839;33;20079;-80
2021/05/12 11:51:25;;;;;;;;;;;15.20;74.40;;;;;;4278691;33;20016;-79
2021/05/12 11:53:59;;;;;;;;;;;15.20;74.40;;;;;;4302436;33;20070;-79
2021/05/12 11:56:26;;;;;;;;;;;15.10;74.60;;;;;;4303627;33;20016;-79
2021/05/12 11:59:00;;;;;;;;;;;15.00;74.80;;;;;;4290600;33;20081;-79
2021/05/12 12:01:31;;;;;;;;;;;15.00;74.90;;;;;;4303265;33;20020;-78
2021/05/12 12:06:46;;;;;;;;;;;15.00;74.90;;;;;;4303264;33;20007;-78
2021/05/12 12:09:14;;;;;;;;;;;15.00;75.10;;;;;;4303753;33;20096;-78
2021/05/12 12:11:44;;;;;;;;;;;15.00;74.80;;;;;;4303293;33;20020;-77
2021/05/12 12:14:12;;;;;;;;;;;15.00;74.90;;;;;;4302397;33;20475;-78
2021/05/12 12:16:44;;;;;;;;;;;15.00;75.60;;;;;;4290497;33;20396;-78
2021/05/12 12:19:20;;;;;;;;;;;15.00;74.90;;;;;;4291013;33;20024;-78
2021/05/12 12:21:53;;;;;;;;;;;15.10;74.50;;;;;;4290231;33;20054;-77
2021/05/12 12:24:23;;;;;;;;;;;15.10;74.40;;;;;;4290151;33;20006;-78
2021/05/12 12:26:58;;;;;;;;;;;15.10;74.60;;;;;;4303280;33;20013;-78
2021/05/12 12:29:29;;;;;;;;;;;15.20;74.60;;;;;;4302060;33;20024;-79
2021/05/12 12:32:07;;;;;;;;;;;15.30;74.30;;;;;;4302105;33;20014;-78
2021/05/12 12:34:35;;;;;;;;;;;15.30;74.10;;;;;;4290411;33;20421;-78
2021/05/12 12:37:17;;;;;;;;;;;15.30;73.70;;;;;;4278414;33;20433;-78
2021/05/12 12:39:58;;;;;;;;;;;15.40;73.80;;;;;;4290194;33;20049;-78
2021/05/12 12:42:50;;;;;;;;;;;15.40;73.60;;;;;;4301758;33;20006;-78
2021/05/12 12:45:25;;;;;;;;;;;15.40;73.70;;;;;;4290209;33;20010;-78
2021/05/12 12:47:55;;;;;;;;;;;15.40;73.80;;;;;;4301943;33;20021;-78
2021/05/12 12:50:26;;;;;;;;;;;15.40;74.20;;;;;;4301679;33;20014;-78
2021/05/12 12:52:56;;;;;;;;;;;15.50;73.40;;;;;;4289745;33;20017;-77
2021/05/12 12:55:26;;;;;;;;;;;15.50;73.10;;;;;;4302690;33;20088;-78
2021/05/12 12:57:57;;;;;;;;;;;15.50;72.80;;;;;;4301878;33;20111;-78
2021/05/12 13:00:30;;;;;;;;;;;15.50;72.80;;;;;;4303041;33;20020;-79
2021/05/12 13:03:00;;;;;;;;;;;15.50;72.70;;;;;;4289520;33;20014;-78
2021/05/12 13:05:34;;;;;;;;;;;15.50;72.80;;;;;;4302685;33;20020;-78
2021/05/12 13:08:20;;;;;;;;;;;15.50;72.60;;;;;;4303133;33;20011;-78
2021/05/12 13:11:06;;;;;;;;;;;15.50;72.00;;;;;;4301627;33;20007;-79
2021/05/12 13:13:45;;;;;;;;;;;15.50;72.50;;;;;;4289763;33;20009;-78
2021/05/12 13:16:27;;;;;;;;;;;15.50;72.20;;;;;;4302696;33;20010;-78
2021/05/12 13:18:56;;;;;;;;;;;15.60;72.40;;;;;;4289951;33;20041;-78
2021/05/12 13:21:38;;;;;;;;;;;15.60;72.40;;;;;;4302735;33;20024;-78
2021/05/12 13:24:15;;;;;;;;;;;15.60;72.40;;;;;;4302880;33;20040;-78
2021/05/12 13:26:46;;;;;;;;;;;15.70;72.30;;;;;;4305792;33;20044;-78
2021/05/12 13:29:15;;;;;;;;;;;15.70;72.30;;;;;;4307778;33;20438;-78
2021/05/12 13:31:44;;;;;;;;;;;15.70;72.20;;;;;;4306284;33;20084;-78
2021/05/12 13:34:17;;;;;;;;;;;15.70;72.10;;;;;;4307819;33;20053;-78
2021/05/12 13:36:46;;;;;;;;;;;15.70;71.80;;;;;;4306518;33;20079;-81
2021/05/12 13:39:14;;;;;;;;;;;15.70;71.80;;;;;;4294539;33;20066;-78
2021/05/12 13:41:47;;;;;;;;;;;15.70;71.90;;;;;;4307530;33;20073;-78
2021/05/12 13:44:18;;;;;;;;;;;15.70;71.70;;;;;;4294220;33;20467;-79
2021/05/12 13:46:47;;;;;;;;;;;15.70;71.60;;;;;;4307560;33;20394;-78
2021/05/12 13:49:18;;;;;;;;;;;15.70;71.60;;;;;;4306133;33;20022;-78
2021/05/12 13:51:51;;;;;;;;;;;15.80;72.30;;;;;;4294254;33;20057;-78
2021/05/12 13:54:32;;;;;;;;;;;15.70;71.30;;;;;;4307545;33;20013;-78
2021/05/12 13:57:17;;;;;;;;;;;15.80;71.30;;;;;;4306377;33;20010;-78
2021/05/12 14:00:14;;;;;;;;;;;15.80;71.50;;;;;;4306308;33;20073;-78
2021/05/12 14:02:49;;;;;;;;;;;15.80;71.60;;;;;;4292953;33;20490;-78
2021/05/12 14:05:16;;;;;;;;;;;15.90;71.90;;;;;;4293696;33;19998;-79
2021/05/12 14:07:44;;;;;;;;;;;15.90;72.00;;;;;;4307537;33;20012;-79
2021/05/12 14:10:19;;;;;;;;;;;16.00;71.70;;;;;;4293816;33;20050;-79
2021/05/12 14:12:51;;;;;;;;;;;16.00;71.70;;;;;;4307012;33;20017;-79
2021/05/12 14:16:32;;;;;;;;;;;16.10;71.60;;;;;;4307358;33;20014;-78
2021/05/12 14:18:16;;;;;;;;;;;16.10;71.40;;;;;;4290326;33;20002;-79
2021/05/12 14:20:43;;;;;;;;;;;16.20;71.20;;;;;;4294130;33;20061;-79
2021/05/12 14:23:17;;;;;;;;;;;16.20;71.00;;;;;;4307154;33;20001;-79
2021/05/12 14:25:44;;;;;;;;;;;16.20;71.10;;;;;;4282052;33;20423;-80
2021/05/12 14:28:11;;;;;;;;;;;16.30;71.00;;;;;;4307233;33;20024;-79
2021/05/12 14:30:46;;;;;;;;;;;16.30;70.80;;;;;;4306765;33;20088;-79
2021/05/12 14:33:16;;;;;;;;;;;16.30;71.00;;;;;;4305598;33;20409;-79
2021/05/12 14:35:46;;;;;;;;;;;16.40;70.70;;;;;;4294134;33;20028;-79
2021/05/12 14:38:20;;;;;;;;;;;16.40;70.40;;;;;;4305177;33;20006;-79
2021/05/12 14:40:50;;;;;;;;;;;16.40;70.10;;;;;;4291425;33;20000;-79
2021/05/12 14:43:20;;;;;;;;;;;16.50;70.00;;;;;;4304495;33;20024;-79
2021/05/12 14:45:53;;;;;;;;;;;16.50;69.70;;;;;;4303866;33;20363;-79
2021/05/12 14:48:29;;;;;;;;;;;16.50;69.50;;;;;;4304241;33;20026;-79
2021/05/12 14:50:59;;;;;;;;;;;16.50;69.20;;;;;;4291842;33;20024;-79